Time;durP1;ratioP1;P1;durP2;ratioP2;P2;SDS_P1;SDS_P2;PMS_P1;PMS_P2;Temp;Humidity;BMP_temperature;BMP_pressure;BME280_temperature;BME280_humidity;BME280_pressure;Samples;Min_cycle;Max_cycle;Signal;HPM_P1;HPM_P2
2022/03/11 00:02:02;;;;;;;16.63;8.88;;;3.00;53.60;;;;;;5058808;28;20029;-76
2022/03/11 00:04:27;;;;;;;17.92;8.90;;;2.90;53.70;;;;;;5060695;28;20135;-76
2022/03/11 00:06:53;;;;;;;19.95;9.52;;;2.90;53.70;;;;;;5054445;28;20036;-75
2022/03/11 00:09:18;;;;;;;16.58;9.45;;;2.90;53.80;;;;;;5044959;28;20681;-75
2022/03/11 00:11:44;;;;;;;15.68;9.05;;;2.80;53.90;;;;;;5049649;28;20043;-76
2022/03/11 00:14:09;;;;;;;16.60;9.07;;;2.80;54.00;;;;;;5064039;28;20027;-75
2022/03/11 00:16:35;;;;;;;17.17;8.65;;;2.80;54.10;;;;;;5059872;28;20044;-76
2022/03/11 00:19:00;;;;;;;18.20;9.43;;;2.70;54.20;;;;;;5041600;28;20036;-75
2022/03/11 00:21:26;;;;;;;17.13;9.38;;;2.70;54.30;;;;;;5042992;28;20045;-75
2022/03/11 00:23:51;;;;;;;20.40;10.07;;;2.60;54.40;;;;;;5019422;28;20037;-77
2022/03/11 00:26:17;;;;;;;18.65;9.20;;;2.60;54.50;;;;;;5059830;28;20037;-76
2022/03/11 00:28:42;;;;;;;22.70;10.45;;;2.50;54.50;;;;;;5036014;28;20052;-76
2022/03/11 00:31:08;;;;;;;22.05;9.40;;;2.50;54.60;;;;;;5055953;28;20028;-75
2022/03/11 00:33:33;;;;;;;22.48;10.75;;;2.50;54.80;;;;;;5056220;28;20568;-75
2022/03/11 00:35:59;;;;;;;21.77;10.20;;;2.40;54.90;;;;;;5020643;28;20040;-76
2022/03/11 00:38:25;;;;;;;19.70;9.43;;;2.40;55.00;;;;;;5026039;28;20028;-75
2022/03/11 00:40:56;;;;;;;18.08;9.43;;;2.30;55.00;;;;;;5060999;28;20087;-75
2022/03/11 00:43:22;;;;;;;22.77;10.48;;;2.30;55.10;;;;;;5050078;28;20043;-75
2022/03/11 00:45:47;;;;;;;19.15;10.02;;;2.30;55.30;;;;;;5062353;28;20080;-76
2022/03/11 00:48:13;;;;;;;23.75;10.80;;;2.20;55.20;;;;;;5053724;28;20537;-76
2022/03/11 00:50:38;;;;;;;19.77;10.68;;;2.20;55.40;;;;;;5038262;28;20183;-76
2022/03/11 00:53:04;;;;;;;20.33;10.68;;;2.20;55.50;;;;;;5061563;28;20104;-77
2022/03/11 00:55:29;;;;;;;21.48;10.57;;;2.20;55.60;;;;;;5059979;28;20397;-75
2022/03/11 00:57:55;;;;;;;19.83;10.80;;;2.10;55.60;;;;;;5063910;28;20028;-76
2022/03/11 01:00:20;;;;;;;22.77;9.85;;;2.10;55.70;;;;;;5049641;28;20036;-74
2022/03/11 01:02:46;;;;;;;25.60;11.70;;;2.00;55.80;;;;;;5044919;28;20033;-75
2022/03/11 01:05:11;;;;;;;23.02;10.55;;;2.00;55.90;;;;;;5048702;28;20098;-75
2022/03/11 01:07:37;;;;;;;18.40;9.48;;;1.90;56.00;;;;;;5044797;28;20124;-75
2022/03/11 01:10:03;;;;;;;21.10;10.20;;;1.90;56.20;;;;;;5061404;28;20036;-74
2022/03/11 01:12:29;;;;;;;23.05;11.80;;;1.90;56.20;;;;;;5048807;28;20029;-74
2022/03/11 01:14:54;;;;;;;18.80;10.35;;;1.80;56.20;;;;;;5063305;28;20089;-75
2022/03/11 01:17:20;;;;;;;22.30;10.63;;;1.90;56.30;;;;;;5068621;28;20040;-75
2022/03/11 01:19:46;;;;;;;24.67;11.63;;;1.80;56.30;;;;;;5034275;28;20109;-76
2022/03/11 01:22:11;;;;;;;23.13;11.05;;;1.80;56.40;;;;;;5055740;28;20108;-76
2022/03/11 01:24:37;;;;;;;21.55;10.80;;;1.80;57.20;;;;;;5059895;28;20036;-75
2022/03/11 01:27:02;;;;;;;25.50;11.13;;;1.70;56.60;;;;;;5042491;28;20060;-75
2022/03/11 01:29:28;;;;;;;21.17;11.55;;;1.70;56.70;;;;;;5037531;28;20032;-75
2022/03/11 01:31:53;;;;;;;22.73;11.32;;;1.70;56.70;;;;;;5062806;28;20032;-75
2022/03/11 01:34:19;;;;;;;25.02;11.98;;;1.70;56.80;;;;;;5058418;28;20090;-76
2022/03/11 01:36:45;;;;;;;24.45;11.95;;;1.60;56.80;;;;;;5060602;28;20488;-76
2022/03/11 01:39:11;;;;;;;25.90;12.60;;;1.60;56.90;;;;;;5057346;28;20047;-76
2022/03/11 01:41:36;;;;;;;25.75;12.02;;;1.50;57.00;;;;;;5036090;28;20492;-76
2022/03/11 01:44:09;;;;;;;21.48;10.68;;;1.50;57.00;;;;;;5050165;28;20104;-75
2022/03/11 01:46:34;;;;;;;26.08;12.57;;;1.50;57.10;;;;;;5052074;28;20127;-75
2022/03/11 01:49:01;;;;;;;24.33;12.13;;;1.50;57.20;;;;;;5066619;28;20148;-75
2022/03/11 01:51:27;;;;;;;23.80;11.95;;;1.50;57.30;;;;;;5035586;28;20040;-75
2022/03/11 01:53:53;;;;;;;22.85;11.57;;;1.40;57.40;;;;;;5026893;28;20036;-75
2022/03/11 01:56:18;;;;;;;24.90;11.88;;;1.40;57.40;;;;;;5040555;28;20058;-75
2022/03/11 01:58:47;;;;;;;23.73;12.50;;;1.40;57.50;;;;;;5038119;28;20324;-76
2022/03/11 02:01:12;;;;;;;22.88;12.05;;;1.40;57.60;;;;;;5065818;28;20036;-75
2022/03/11 02:03:38;;;;;;;26.52;12.52;;;1.30;57.50;;;;;;5065586;28;20566;-77
2022/03/11 02:06:04;;;;;;;24.65;11.95;;;1.30;57.60;;;;;;5056084;28;20042;-75
2022/03/11 02:08:30;;;;;;;24.08;12.90;;;1.30;57.70;;;;;;5063529;28;20060;-75
2022/03/11 02:10:56;;;;;;;23.83;11.80;;;1.30;57.80;;;;;;5064635;28;20029;-75
2022/03/11 02:13:22;;;;;;;25.15;12.57;;;1.20;57.80;;;;;;5059866;28;20059;-74
2022/03/11 02:15:47;;;;;;;25.52;12.05;;;1.20;57.90;;;;;;5042365;28;20056;-75
2022/03/11 02:18:13;;;;;;;25.40;12.45;;;1.20;57.90;;;;;;5049639;28;20066;-76
2022/03/11 02:20:38;;;;;;;25.80;12.10;;;1.10;58.00;;;;;;5031674;28;20066;-76
2022/03/11 02:23:04;;;;;;;25.60;11.95;;;1.10;58.10;;;;;;5060080;28;20033;-75
2022/03/11 02:25:29;;;;;;;22.83;11.93;;;1.10;58.10;;;;;;5048189;28;20086;-75
2022/03/11 02:27:55;;;;;;;27.13;12.43;;;1.10;58.10;;;;;;5048903;28;20040;-75
2022/03/11 02:30:20;;;;;;;24.30;12.50;;;1.10;58.10;;;;;;5025593;28;20486;-74
2022/03/11 02:32:46;;;;;;;28.00;13.77;;;1.10;58.30;;;;;;5047622;28;20098;-75
2022/03/11 02:35:12;;;;;;;28.42;12.43;;;1.00;58.30;;;;;;5037042;28;20032;-74
2022/03/11 02:37:37;;;;;;;23.27;11.90;;;1.00;58.40;;;;;;5049464;28;20029;-73
2022/03/11 02:40:03;;;;;;;26.20;11.88;;;1.00;58.40;;;;;;5047360;28;20568;-75
2022/03/11 02:42:29;;;;;;;27.48;12.82;;;0.90;58.50;;;;;;5033444;28;20037;-74
2022/03/11 04:38:48;;;;;;;28.63;12.52;;;-0.20;59.60;;;;;;5061802;28;20059;-75
2022/03/11 04:41:13;;;;;;;26.55;12.63;;;-0.20;59.30;;;;;;5053136;28;20500;-76
2022/03/11 04:43:39;;;;;;;26.55;13.70;;;-0.20;59.50;;;;;;5047027;28;20093;-76
2022/03/11 04:46:05;;;;;;;24.45;12.90;;;-0.30;59.60;;;;;;5037969;28;20020;-75
2022/03/11 04:48:31;;;;;;;26.30;13.23;;;-0.30;59.70;;;;;;5043150;28;20056;-75
2022/03/11 04:50:57;;;;;;;24.90;13.52;;;-0.30;59.80;;;;;;5041987;28;20033;-75
2022/03/11 04:53:23;;;;;;;29.73;15.32;;;-0.30;59.90;;;;;;5019318;28;20046;-76
2022/03/11 04:55:48;;;;;;;27.63;14.82;;;-0.40;59.90;;;;;;4999200;28;20031;-76
2022/03/11 04:58:14;;;;;;;26.88;13.18;;;-0.40;60.00;;;;;;5026761;28;20032;-75
2022/03/11 05:00:39;;;;;;;24.80;13.27;;;-0.50;60.10;;;;;;5027766;28;20024;-77
2022/03/11 05:03:05;;;;;;;27.08;13.68;;;-0.50;60.20;;;;;;5024677;28;20119;-75
2022/03/11 05:05:30;;;;;;;26.80;12.98;;;-0.50;60.20;;;;;;5054330;28;20037;-75
2022/03/11 05:07:56;;;;;;;27.27;14.52;;;-0.50;60.40;;;;;;5061091;28;20092;-76
2022/03/11 05:10:21;;;;;;;25.35;13.15;;;-0.50;60.50;;;;;;5052961;28;20564;-76
2022/03/11 05:12:47;;;;;;;27.67;13.27;;;-0.60;60.50;;;;;;5041678;28;20033;-75
2022/03/11 05:15:13;;;;;;;25.17;12.07;;;-0.60;60.60;;;;;;5063449;28;20044;-75
2022/03/11 05:17:38;;;;;;;26.38;11.60;;;-0.60;60.60;;;;;;5061712;28;20132;-75
2022/03/11 05:20:05;;;;;;;22.65;11.10;;;-0.60;60.70;;;;;;5064453;28;20104;-75
2022/03/11 05:22:31;;;;;;;22.48;10.88;;;-0.70;60.70;;;;;;5060075;28;20040;-75
2022/03/11 05:24:56;;;;;;;21.10;10.57;;;-0.70;60.70;;;;;;5052006;28;20067;-75
2022/03/11 05:27:22;;;;;;;20.88;10.02;;;-0.70;60.80;;;;;;5055101;28;20020;-75
2022/03/11 05:29:47;;;;;;;20.98;10.40;;;-0.80;60.80;;;;;;5051474;28;20056;-75
2022/03/11 05:32:14;;;;;;;20.35;9.43;;;-0.80;60.10;;;;;;5052105;28;20051;-75
2022/03/11 05:34:42;;;;;;;20.25;10.45;;;-0.80;61.00;;;;;;5060243;28;20444;-74
2022/03/11 05:37:07;;;;;;;20.80;10.23;;;-0.80;61.00;;;;;;5050200;28;20496;-74
2022/03/11 05:39:33;;;;;;;21.52;9.80;;;-0.90;61.00;;;;;;5026511;28;20040;-75
2022/03/11 05:41:59;;;;;;;22.05;9.55;;;-0.90;61.10;;;;;;5031420;28;20181;-75
2022/03/11 05:44:24;;;;;;;19.73;8.70;;;-0.90;61.10;;;;;;5062278;28;20028;-75
2022/03/11 05:46:52;;;;;;;19.98;10.13;;;-0.90;61.10;;;;;;5030134;28;20056;-75
2022/03/11 05:49:17;;;;;;;21.50;9.40;;;-1.00;61.10;;;;;;5043459;28;20116;-75
2022/03/11 05:51:43;;;;;;;18.42;9.02;;;-1.00;61.20;;;;;;5056197;28;20470;-76
2022/03/11 05:54:08;;;;;;;20.35;10.20;;;-1.00;61.20;;;;;;5059843;28;20041;-75
2022/03/11 05:56:34;;;;;;;18.80;9.25;;;-1.00;61.40;;;;;;5041484;28;20055;-75
2022/03/11 05:59:00;;;;;;;20.00;10.23;;;-1.00;61.40;;;;;;5060566;28;20509;-75
2022/03/11 06:01:26;;;;;;;21.25;10.23;;;-1.00;61.50;;;;;;5018497;28;20036;-75
2022/03/11 06:03:51;;;;;;;20.30;9.52;;;-1.00;61.60;;;;;;5044750;28;20122;-74
2022/03/11 06:06:17;;;;;;;19.77;9.65;;;-1.00;61.60;;;;;;5060093;28;20041;-75
2022/03/11 06:08:43;;;;;;;20.33;10.07;;;-1.00;61.60;;;;;;5054604;28;20116;-75
2022/03/11 06:11:09;;;;;;;21.08;9.90;;;-1.00;61.70;;;;;;5059201;28;20052;-75
2022/03/11 06:13:35;;;;;;;20.55;9.30;;;-1.10;61.60;;;;;;5054857;28;20036;-75
2022/03/11 06:16:01;;;;;;;22.73;10.60;;;-1.10;61.60;;;;;;5059688;28;20033;-75
2022/03/11 06:18:27;;;;;;;24.45;11.02;;;-1.10;61.80;;;;;;5048748;28;20501;-75
2022/03/11 06:20:52;;;;;;;27.90;10.65;;;-1.10;61.80;;;;;;5055365;28;20066;-75
2022/03/11 06:23:18;;;;;;;21.42;10.85;;;-1.10;61.90;;;;;;5051373;28;20682;-74
2022/03/11 06:25:44;;;;;;;25.08;12.13;;;-1.10;62.00;;;;;;5048876;28;20048;-75
2022/03/11 06:28:09;;;;;;;24.05;12.75;;;-1.10;62.00;;;;;;5060839;28;20020;-75
2022/03/11 06:30:35;;;;;;;20.48;9.90;;;-1.10;62.10;;;;;;5058312;28;20620;-75
2022/03/11 06:33:00;;;;;;;18.50;9.13;;;-1.10;62.10;;;;;;5049736;28;20036;-76
2022/03/11 06:35:26;;;;;;;15.55;8.55;;;-1.10;62.10;;;;;;5055920;28;20024;-75
2022/03/11 06:37:51;;;;;;;20.73;10.60;;;-1.00;62.10;;;;;;5052485;28;20068;-76
2022/03/11 06:40:17;;;;;;;20.33;10.65;;;-1.10;62.10;;;;;;5051206;28;20037;-75
2022/03/11 06:42:44;;;;;;;21.55;9.63;;;-1.00;62.30;;;;;;5041380;28;20143;-76
2022/03/11 06:45:10;;;;;;;22.40;10.32;;;-1.00;62.40;;;;;;5046707;28;20082;-75
2022/03/11 06:47:36;;;;;;;43.42;14.80;;;-0.90;62.50;;;;;;5056985;28;20033;-75
2022/03/11 06:50:01;;;;;;;27.02;11.68;;;-0.80;62.50;;;;;;5037740;28;20539;-74
2022/03/11 06:52:27;;;;;;;27.00;12.23;;;-0.80;62.50;;;;;;5061668;28;20028;-75
2022/03/11 06:54:53;;;;;;;23.73;10.38;;;-0.80;62.50;;;;;;5054941;28;20053;-75
2022/03/11 06:57:18;;;;;;;23.48;10.18;;;-0.70;62.50;;;;;;5048550;28;20052;-74
2022/03/11 06:59:44;;;;;;;25.35;11.07;;;-0.60;62.50;;;;;;5015662;28;20151;-75
2022/03/11 07:02:10;;;;;;;24.17;10.07;;;-0.50;62.50;;;;;;5058735;28;20033;-75
2022/03/11 07:04:35;;;;;;;17.02;8.48;;;-0.50;62.50;;;;;;5045487;28;20037;-76
2022/03/11 07:07:01;;;;;;;14.43;7.93;;;-0.40;63.20;;;;;;5021796;28;20050;-76
2022/03/11 07:09:26;;;;;;;15.38;7.22;;;-0.20;62.40;;;;;;5049551;28;20032;-76
2022/03/11 07:11:57;;;;;;;17.95;8.60;;;-0.10;62.20;;;;;;5055291;28;20033;-76
2022/03/11 07:14:26;;;;;;;15.75;8.35;;;0.00;62.00;;;;;;5028976;28;20060;-74
2022/03/11 07:16:52;;;;;;;14.52;7.90;;;0.20;61.80;;;;;;5005333;28;20654;-75
2022/03/11 07:19:21;;;;;;;13.65;7.47;;;0.30;61.60;;;;;;5053031;28;20119;-75
2022/03/11 07:21:47;;;;;;;15.57;7.28;;;0.40;61.40;;;;;;5033415;28;20029;-75
2022/03/11 07:24:12;;;;;;;16.15;7.13;;;0.60;61.20;;;;;;5057887;28;20054;-74
2022/03/11 07:26:38;;;;;;;13.98;6.68;;;0.70;60.90;;;;;;5058580;28;20016;-76
2022/03/11 07:29:04;;;;;;;13.68;7.03;;;0.90;60.80;;;;;;5030303;28;20571;-75
2022/03/11 07:31:29;;;;;;;13.70;6.70;;;1.00;60.50;;;;;;5056645;28;20036;-75
2022/03/11 07:33:56;;;;;;;11.40;5.93;;;1.20;60.30;;;;;;5046400;28;20037;-75
2022/03/11 07:36:21;;;;;;;14.02;6.28;;;1.30;60.00;;;;;;5030631;28;20115;-74
2022/03/11 07:38:48;;;;;;;10.38;5.93;;;1.50;59.90;;;;;;5034452;28;20112;-74
2022/03/11 07:41:14;;;;;;;14.27;6.15;;;1.70;59.70;;;;;;5036955;28;20666;-77
2022/03/11 07:43:42;;;;;;;12.68;6.05;;;1.80;59.50;;;;;;5047612;28;20044;-76
2022/03/11 07:46:08;;;;;;;10.48;5.75;;;2.00;59.30;;;;;;5036976;28;20040;-77
2022/03/11 07:48:34;;;;;;;10.75;5.68;;;2.20;59.20;;;;;;5032897;28;20472;-76
2022/03/11 07:50:59;;;;;;;12.20;5.80;;;2.30;59.00;;;;;;5038024;28;20056;-74
2022/03/11 07:53:25;;;;;;;12.50;5.60;;;2.50;58.80;;;;;;5032669;28;20036;-75
2022/03/11 07:55:50;;;;;;;10.82;5.57;;;2.60;58.50;;;;;;5046358;28;20116;-74
2022/03/11 07:58:17;;;;;;;9.27;5.63;;;2.80;58.30;;;;;;5058155;28;20035;-75
2022/03/11 08:00:42;;;;;;;9.82;5.70;;;2.90;58.10;;;;;;5044869;28;20394;-75
2022/03/11 08:03:08;;;;;;;11.57;6.10;;;3.10;57.90;;;;;;5047743;28;20039;-75
2022/03/11 08:05:34;;;;;;;9.30;5.30;;;3.30;57.70;;;;;;5031221;28;20098;-75
2022/03/11 08:07:59;;;;;;;10.25;5.72;;;3.40;57.50;;;;;;5076868;28;20037;-75
2022/03/11 08:10:25;;;;;;;8.43;4.82;;;3.60;57.30;;;;;;5064206;28;20036;-74
2022/03/11 08:12:53;;;;;;;8.60;5.13;;;3.80;57.20;;;;;;5059197;28;20022;-75
2022/03/11 08:15:18;;;;;;;11.18;5.68;;;3.90;56.90;;;;;;5035553;28;20111;-75
2022/03/11 08:17:44;;;;;;;8.35;5.07;;;4.10;56.70;;;;;;5059720;28;20040;-77
2022/03/11 08:20:10;;;;;;;10.75;5.57;;;4.20;56.40;;;;;;5028928;28;20033;-76
2022/03/11 08:22:36;;;;;;;9.95;5.60;;;4.40;56.20;;;;;;5051980;28;20050;-76
2022/03/11 08:25:02;;;;;;;13.32;5.05;;;4.50;56.20;;;;;;5048557;28;20101;-75
2022/03/11 08:27:27;;;;;;;10.65;5.72;;;4.70;55.80;;;;;;5037172;28;20451;-76
2022/03/11 08:29:53;;;;;;;14.18;5.97;;;4.90;55.70;;;;;;5057984;28;20146;-75
2022/03/11 08:32:19;;;;;;;10.82;5.53;;;5.10;55.50;;;;;;5075470;28;20036;-75
2022/03/11 08:34:44;;;;;;;9.07;5.05;;;5.30;55.30;;;;;;5065614;28;20490;-74
2022/03/11 08:37:10;;;;;;;9.60;5.63;;;5.40;55.00;;;;;;5045432;28;20434;-75
2022/03/11 08:39:36;;;;;;;10.40;5.15;;;5.60;54.70;;;;;;5033859;28;20551;-76
2022/03/11 08:42:01;;;;;;;11.05;5.82;;;5.70;54.60;;;;;;5053752;28;20040;-77
2022/03/11 08:44:27;;;;;;;10.45;5.20;;;5.90;54.40;;;;;;5026429;28;20058;-74
2022/03/11 08:46:52;;;;;;;9.82;5.50;;;6.10;54.10;;;;;;5056674;28;20028;-76
2022/03/11 08:49:18;;;;;;;10.80;5.32;;;6.30;53.90;;;;;;5064932;28;20059;-74
2022/03/11 08:51:43;;;;;;;11.35;5.30;;;6.40;53.50;;;;;;5064686;28;20041;-76
2022/03/11 08:54:09;;;;;;;8.68;5.47;;;6.60;53.30;;;;;;5055262;28;20186;-76
2022/03/11 08:56:35;;;;;;;9.73;5.22;;;6.70;53.70;;;;;;5037148;28;20065;-75
2022/03/11 08:59:00;;;;;;;8.80;5.20;;;6.90;52.80;;;;;;5051090;28;20118;-76
2022/03/11 09:01:26;;;;;;;7.40;4.97;;;7.10;52.70;;;;;;5044862;28;20040;-75
2022/03/11 09:03:51;;;;;;;10.32;5.00;;;7.30;52.40;;;;;;5064333;28;20032;-76
2022/03/11 09:06:17;;;;;;;9.43;5.60;;;7.40;52.10;;;;;;5069917;28;20088;-76
2022/03/11 09:08:44;;;;;;;11.90;5.90;;;7.60;51.90;;;;;;5025271;28;20626;-76
2022/03/11 09:11:10;;;;;;;11.07;5.68;;;7.80;51.70;;;;;;5035670;28;20060;-75
2022/03/11 09:13:35;;;;;;;11.93;6.07;;;7.90;51.50;;;;;;5055801;28;20102;-76
2022/03/11 09:16:01;;;;;;;9.52;5.43;;;8.10;51.20;;;;;;5036461;28;20036;-76
2022/03/11 09:18:27;;;;;;;11.70;5.88;;;8.30;50.80;;;;;;5064702;28;20107;-76
2022/03/11 09:20:53;;;;;;;11.77;5.35;;;8.50;50.60;;;;;;5057153;28;20067;-75
2022/03/11 09:23:19;;;;;;;9.57;5.57;;;8.60;50.20;;;;;;5063237;28;20089;-75
2022/03/11 09:25:44;;;;;;;10.27;5.05;;;8.70;49.90;;;;;;5059929;28;20036;-75
2022/03/11 09:28:11;;;;;;;12.77;5.88;;;8.80;49.60;;;;;;5031839;28;20473;-76
2022/03/11 09:30:36;;;;;;;24.67;5.93;;;8.90;49.40;;;;;;5049397;28;20193;-75
2022/03/11 09:33:02;;;;;;;8.73;5.45;;;9.10;49.30;;;;;;5027304;28;20497;-75
2022/03/11 09:35:27;;;;;;;13.10;5.88;;;9.30;49.00;;;;;;5071113;28;20040;-75
2022/03/11 09:37:53;;;;;;;9.10;5.43;;;9.50;48.70;;;;;;5061723;28;20052;-74
2022/03/11 09:40:18;;;;;;;10.75;6.07;;;9.60;48.30;;;;;;5050934;28;20036;-74
2022/03/11 09:42:45;;;;;;;8.18;5.45;;;9.70;48.10;;;;;;5065809;28;20044;-75
2022/03/11 09:45:11;;;;;;;8.52;5.07;;;9.80;47.80;;;;;;5039675;28;20036;-74
2022/03/11 09:47:39;;;;;;;13.55;5.93;;;9.90;47.50;;;;;;5055142;28;20041;-75
2022/03/11 09:50:05;;;;;;;10.80;5.45;;;10.10;47.30;;;;;;5034944;28;20033;-75
2022/03/11 09:52:31;;;;;;;11.75;5.55;;;10.20;47.10;;;;;;5054790;28;20063;-76
2022/03/11 09:54:57;;;;;;;11.65;6.00;;;10.40;46.90;;;;;;5018367;28;20044;-75
2022/03/11 09:57:23;;;;;;;8.25;5.13;;;10.50;46.70;;;;;;5067730;28;20044;-76
2022/03/11 09:59:48;;;;;;;10.30;5.50;;;10.70;46.60;;;;;;5057617;28;20059;-76
2022/03/11 10:02:14;;;;;;;10.23;5.63;;;11.00;46.60;;;;;;5045085;28;20032;-76
2022/03/11 10:04:51;;;;;;;11.35;5.78;;;11.10;46.20;;;;;;5019585;28;20032;-75
2022/03/11 10:07:28;;;;;;;10.18;5.40;;;11.30;45.70;;;;;;5058520;28;20032;-75
2022/03/11 10:09:57;;;;;;;8.43;5.75;;;11.40;45.70;;;;;;5023332;28;20590;-75
2022/03/11 10:12:25;;;;;;;11.00;5.93;;;11.60;45.50;;;;;;5041803;28;20041;-76
2022/03/11 10:15:04;;;;;;;8.43;5.70;;;11.70;45.90;;;;;;5050995;28;20037;-75
2022/03/11 10:17:37;;;;;;;10.85;6.10;;;11.90;44.80;;;;;;5043472;28;20032;-77
2022/03/11 10:20:05;;;;;;;12.02;5.75;;;12.00;44.60;;;;;;5055212;28;20040;-76
2022/03/11 10:22:31;;;;;;;9.52;5.57;;;12.30;44.60;;;;;;5052701;28;20078;-75
2022/03/11 10:25:00;;;;;;;12.05;6.18;;;12.40;44.30;;;;;;5040473;28;20456;-76
2022/03/11 10:27:26;;;;;;;14.77;5.95;;;12.60;43.90;;;;;;5039915;28;20040;-77
2022/03/11 10:29:51;;;;;;;11.95;6.35;;;12.80;43.70;;;;;;5056772;28;20495;-77
2022/03/11 10:32:25;;;;;;;11.95;5.97;;;12.90;43.70;;;;;;5035837;28;20048;-77
2022/03/11 10:34:51;;;;;;;7.63;5.00;;;13.00;42.80;;;;;;5049201;28;20041;-77
2022/03/11 10:37:16;;;;;;;8.23;5.57;;;13.20;42.90;;;;;;5036165;28;20109;-75
2022/03/11 10:39:46;;;;;;;9.70;5.60;;;13.30;42.80;;;;;;5037774;28;20051;-76
2022/03/11 10:42:23;;;;;;;12.27;5.50;;;13.50;42.40;;;;;;5053584;28;20124;-75
2022/03/11 10:44:59;;;;;;;12.82;6.00;;;13.60;42.50;;;;;;5057462;28;20032;-75
2022/03/11 10:47:30;;;;;;;9.10;5.63;;;13.80;41.40;;;;;;5026918;28;20041;-75
2022/03/11 10:49:57;;;;;;;13.18;5.38;;;14.00;42.40;;;;;;5039374;28;20502;-76
2022/03/11 10:52:34;;;;;;;9.10;5.65;;;14.10;41.60;;;;;;5030006;28;20024;-76
2022/03/11 10:55:00;;;;;;;9.52;5.95;;;14.30;41.00;;;;;;5060729;28;20041;-77
2022/03/11 10:57:36;;;;;;;11.38;5.60;;;14.50;41.30;;;;;;5061339;28;20036;-75
2022/03/11 11:00:24;;;;;;;8.32;5.40;;;14.60;40.50;;;;;;5056422;28;20028;-76
2022/03/11 11:02:51;;;;;;;11.00;5.18;;;14.70;40.20;;;;;;5044073;28;20440;-75
2022/03/11 11:05:17;;;;;;;8.20;5.28;;;14.70;40.60;;;;;;5055475;28;20124;-76
2022/03/11 11:07:43;;;;;;;11.93;6.60;;;14.90;40.40;;;;;;5052510;28;20812;-75
2022/03/11 11:10:10;;;;;;;10.60;6.32;;;15.00;40.20;;;;;;5055532;28;20033;-75
2022/03/11 11:12:36;;;;;;;9.30;5.75;;;15.10;39.60;;;;;;5054189;28;20040;-77
2022/03/11 11:15:03;;;;;;;10.55;5.35;;;15.20;39.30;;;;;;5027653;28;20036;-77
2022/03/11 11:17:28;;;;;;;9.35;5.28;;;15.20;39.30;;;;;;5027551;28;20043;-75
2022/03/11 11:19:56;;;;;;;10.18;5.82;;;15.30;39.10;;;;;;5054241;28;20032;-77
2022/03/11 11:22:22;;;;;;;7.47;5.15;;;15.50;38.90;;;;;;5015520;28;20506;-76
2022/03/11 11:24:49;;;;;;;7.75;5.43;;;15.60;38.60;;;;;;5037011;28;20513;-77
2022/03/11 11:27:15;;;;;;;8.90;5.20;;;15.70;38.30;;;;;;5054395;28;20113;-76
2022/03/11 11:29:41;;;;;;;6.88;5.05;;;15.90;38.20;;;;;;5046008;28;20143;-76
2022/03/11 11:32:07;;;;;;;8.57;5.13;;;16.00;38.00;;;;;;5059363;28;20031;-76
2022/03/11 11:34:35;;;;;;;7.05;5.20;;;16.20;37.90;;;;;;5066420;28;20571;-76
2022/03/11 11:37:01;;;;;;;8.73;5.28;;;16.40;37.50;;;;;;5028837;28;20098;-76
2022/03/11 11:39:35;;;;;;;9.32;5.35;;;16.50;37.30;;;;;;5038680;28;20032;-77
2022/03/11 11:42:05;;;;;;;9.70;5.95;;;16.50;37.00;;;;;;5048578;28;20036;-76
2022/03/11 11:44:33;;;;;;;9.25;5.57;;;16.60;36.80;;;;;;5043791;28;20106;-75
2022/03/11 11:47:07;;;;;;;8.63;5.07;;;16.70;36.60;;;;;;5039093;28;21331;-75
2022/03/11 11:49:52;;;;;;;7.93;4.95;;;16.70;36.10;;;;;;5034542;28;20083;-79
2022/03/11 11:52:33;;;;;;;9.25;4.93;;;16.80;35.70;;;;;;5024475;28;20048;-76
2022/03/11 11:55:11;;;;;;;7.47;5.15;;;16.90;36.00;;;;;;5058510;28;20048;-77
2022/03/11 11:57:37;;;;;;;7.95;5.32;;;17.10;35.20;;;;;;5052864;28;20029;-76
2022/03/11 12:00:05;;;;;;;7.63;5.00;;;17.10;35.50;;;;;;5057391;28;20040;-78
2022/03/11 12:02:34;;;;;;;9.27;5.20;;;17.10;35.40;;;;;;5055743;28;20047;-76
2022/03/11 12:04:59;;;;;;;7.80;5.05;;;17.20;35.30;;;;;;5038523;28;20032;-76
2022/03/11 12:07:44;;;;;;;5.97;4.10;;;17.30;35.20;;;;;;5048829;28;20040;-76
2022/03/11 12:10:23;;;;;;;8.73;5.10;;;17.50;34.80;;;;;;5021864;28;20062;-77
2022/03/11 12:12:48;;;;;;;10.88;5.55;;;17.70;34.80;;;;;;5049262;28;20043;-77
2022/03/11 12:15:14;;;;;;;7.88;5.03;;;17.90;35.00;;;;;;5065442;28;20452;-79
2022/03/11 12:17:43;;;;;;;8.20;4.40;;;18.00;34.70;;;;;;5052861;28;20048;-79
2022/03/11 12:20:26;;;;;;;7.50;5.15;;;18.10;34.40;;;;;;5058161;28;20032;-78
2022/03/11 12:22:52;;;;;;;7.07;4.75;;;18.30;33.90;;;;;;5054015;28;20753;-76
2022/03/11 12:25:22;;;;;;;8.32;4.78;;;18.40;34.30;;;;;;5059626;28;20730;-76
2022/03/11 12:27:58;;;;;;;7.60;4.60;;;18.50;34.10;;;;;;5007237;28;20734;-76
2022/03/11 12:30:23;;;;;;;8.18;5.07;;;18.60;33.60;;;;;;5048387;28;20177;-77
2022/03/11 12:32:50;;;;;;;8.68;4.47;;;18.70;34.00;;;;;;5043517;28;20116;-76
2022/03/11 12:35:18;;;;;;;9.05;4.47;;;18.90;33.80;;;;;;5036968;28;20120;-76
2022/03/11 12:37:43;;;;;;;8.18;4.78;;;19.00;33.60;;;;;;5053016;28;20075;-77
2022/03/11 12:40:09;;;;;;;8.02;4.28;;;19.00;33.10;;;;;;5043921;28;20485;-78
2022/03/11 12:42:40;;;;;;;12.73;4.50;;;19.10;32.90;;;;;;5059944;28;20058;-77
2022/03/11 12:45:06;;;;;;;5.88;4.32;;;19.10;32.50;;;;;;5040518;28;20040;-77
2022/03/11 12:47:35;;;;;;;7.43;3.90;;;19.20;32.90;;;;;;5042478;28;20040;-77
2022/03/11 12:50:02;;;;;;;5.95;4.28;;;19.30;32.90;;;;;;5065993;28;20036;-77
2022/03/11 12:52:28;;;;;;;9.75;4.38;;;19.50;32.90;;;;;;5054103;28;20194;-77
2022/03/11 12:54:53;;;;;;;5.07;4.00;;;19.50;32.40;;;;;;5045710;28;20049;-77
2022/03/11 12:57:19;;;;;;;8.32;4.13;;;19.70;32.30;;;;;;5057008;28;20116;-77
2022/03/11 12:59:45;;;;;;;8.88;4.30;;;19.70;31.90;;;;;;5044370;28;20139;-76
2022/03/11 13:02:10;;;;;;;5.45;4.13;;;19.70;32.40;;;;;;5031320;28;20152;-77
2022/03/11 13:04:43;;;;;;;5.70;3.75;;;19.70;31.60;;;;;;5046868;28;20044;-78
2022/03/11 13:07:08;;;;;;;7.20;3.85;;;19.90;31.00;;;;;;5062334;28;20043;-78
2022/03/11 13:09:34;;;;;;;9.10;4.30;;;19.90;31.20;;;;;;5055672;28;20036;-78
2022/03/11 13:12:24;;;;;;;5.95;4.30;;;20.00;31.00;;;;;;5027183;28;20496;-76
2022/03/11 13:15:04;;;;;;;5.90;4.05;;;20.10;30.20;;;;;;5060989;28;20033;-76
2022/03/11 13:17:40;;;;;;;7.30;4.28;;;20.20;31.00;;;;;;5037408;28;20040;-77
2022/03/11 13:20:06;;;;;;;5.30;3.42;;;20.30;30.40;;;;;;5059078;28;20083;-77
2022/03/11 13:22:31;;;;;;;5.28;3.88;;;20.40;30.80;;;;;;5056980;28;20048;-75
2022/03/11 13:25:04;;;;;;;5.03;3.67;;;20.60;30.40;;;;;;5051883;28;20070;-77
2022/03/11 13:27:37;;;;;;;4.82;3.53;;;20.70;30.00;;;;;;5053581;28;20040;-77
2022/03/11 13:30:06;;;;;;;6.88;3.70;;;20.80;29.90;;;;;;5041529;28;20041;-77
2022/03/11 13:32:32;;;;;;;4.85;3.35;;;20.90;29.80;;;;;;5052025;28;20116;-77
2022/03/11 13:34:57;;;;;;;7.15;3.70;;;20.90;29.70;;;;;;5043142;28;20115;-75
2022/03/11 13:37:23;;;;;;;5.70;3.67;;;20.80;29.50;;;;;;5057704;28;20040;-77
2022/03/11 13:40:06;;;;;;;6.30;3.60;;;20.80;29.30;;;;;;5063973;28;20070;-78
2022/03/11 13:42:32;;;;;;;5.60;4.35;;;20.80;28.40;;;;;;5056174;28;20096;-77
2022/03/11 13:45:07;;;;;;;5.63;3.92;;;20.90;29.30;;;;;;5061462;28;20032;-77
2022/03/11 13:47:33;;;;;;;19.27;5.18;;;21.00;28.80;;;;;;5043937;28;20172;-77
2022/03/11 13:50:08;;;;;;;5.10;3.42;;;21.10;29.10;;;;;;5055803;28;20530;-78
2022/03/11 13:52:40;;;;;;;6.07;3.88;;;21.10;28.60;;;;;;5041733;28;20044;-76
2022/03/11 13:55:07;;;;;;;5.65;3.55;;;21.20;28.50;;;;;;5047472;28;20140;-77
2022/03/11 13:57:33;;;;;;;8.60;3.85;;;21.30;28.60;;;;;;5058903;28;20036;-77
2022/03/11 14:00:22;;;;;;;4.85;3.38;;;21.30;28.40;;;;;;5045492;28;20036;-77
2022/03/11 14:02:49;;;;;;;7.25;3.47;;;21.30;27.90;;;;;;5026356;28;20043;-77
2022/03/11 14:05:16;;;;;;;3.72;2.88;;;21.40;28.40;;;;;;5034696;28;20097;-77
2022/03/11 14:07:42;;;;;;;5.70;3.70;;;21.40;28.20;;;;;;5052049;28;20493;-79
2022/03/11 14:10:17;;;;;;;5.13;3.15;;;21.50;27.70;;;;;;5031986;28;20516;-76
2022/03/11 14:12:43;;;;;;;6.07;3.55;;;21.40;27.30;;;;;;5038285;28;20123;-76
2022/03/11 14:15:11;;;;;;;4.18;3.20;;;21.40;27.60;;;;;;5045090;28;20160;-77
2022/03/11 14:17:36;;;;;;;4.65;3.60;;;21.50;27.60;;;;;;5051614;28;20044;-77
2022/03/11 14:20:04;;;;;;;4.43;3.13;;;21.50;27.60;;;;;;5034089;28;20028;-76
2022/03/11 14:22:29;;;;;;;5.63;3.83;;;21.50;27.30;;;;;;5050179;28;21431;-77
2022/03/11 14:24:55;;;;;;;10.15;3.25;;;21.60;27.40;;;;;;5053181;28;20045;-76
2022/03/11 14:27:21;;;;;;;7.05;3.45;;;21.70;27.40;;;;;;5048764;28;20055;-76
2022/03/11 14:29:47;;;;;;;6.50;3.33;;;21.90;27.40;;;;;;5056215;28;20102;-76
2022/03/11 14:32:12;;;;;;;3.45;2.55;;;21.90;27.30;;;;;;5043562;28;20047;-76
2022/03/11 14:34:38;;;;;;;4.47;2.95;;;22.10;27.20;;;;;;5045265;28;20073;-76